Tiempo atmosférico en la estación meteorológica de La Seo d?Urgell, Lleida (690 m.)



Fecha
DESCASC
Temp. máxima en grados centígrados (hora)
DESCASC
Temp. mínima en grados centígrados (hora)
DESCASC
Temp. media en grados centígrados
DESCASC
Racha de viento máxima en m/sg (hora)
DESCASC
Velocidad máxima media en intervalos de 10 minutos(hora)
DESCASC
Precipitaciones diarias en mm
DESCASC
Precipitaciones de 00:00 a 06:00 en mm
DESCASC
Precipitaciones de 06:00 a 12:00 en mm
DESCASC
Precipitaciones de 12:00 a 18:00 en mm
DESCASC
Precipitaciones de 18:00 a 24:00 en mm
DESCASC

Gráficas

Temp. máximas Temp. mínimas Temp. medias Precipitaciones Rachas de viento máximas Velocidades máximas media en intervalos de 10 minutos

Datos horarios

Fecha y hora oficial Temperatura (ºC) Velocidad del viento (km/h) Dirección del viento Racha (km/h) Dirección de racha Precipitación (mm) Presión (hPa) Tendencia (hPa) Humedad (%)
2019-06-19 23:00:00 18.2 0 Calma 4 Sudeste 0 -- -- 57
2019-06-19 22:00:00 20.8 0 Calma 6 Oeste 0 -- -- 43
2019-06-19 21:00:00 24.9 3 Oeste 16 Oeste 0 -- -- 30
2019-06-19 20:00:00 26.5 6 Sudoeste 18 Sudoeste 0 -- -- 27
2019-06-19 19:00:00 26.7 6 Sudoeste 19 Sudoeste 0 -- -- 26
2019-06-19 18:00:00 27.2 6 Sudoeste 19 Sudoeste 0 -- -- 25
2019-06-19 17:00:00 28.2 5 Sudoeste 22 Sudoeste 0 -- -- 23
2019-06-19 16:00:00 27.5 7 Sudoeste 26 Oeste 0 -- -- 22
2019-06-19 15:00:00 28.5 9 Sudoeste 22 Oeste 0 -- -- 20
2019-06-19 14:00:00 27.7 9 Sudoeste 21 Sudoeste 0 -- -- 22
2019-06-19 13:00:00 27.4 7 Oeste 17 Sudoeste 0 -- -- 22
2019-06-19 12:00:00 25.9 2 Sudeste 6 Sudeste 0 -- -- 32
2019-06-19 11:00:00 23.2 0 Calma 5 Oeste 0 -- -- 36
2019-06-19 10:00:00 20.6 0 Calma 3 Sudeste 0 -- -- 42
2019-06-19 09:00:00 16.4 2 Sudeste 4 Sudeste 0 -- -- 58
2019-06-19 08:00:00 11.6 0 Calma 4 Este 0 -- -- 82
2019-06-19 07:00:00 9 0 Calma 5 Noroeste 0 -- -- 87
2019-06-19 06:00:00 9.5 0 Calma 3 Sur 0 -- -- 84
2019-06-19 05:00:00 10.5 2 Norte 4 Norte 0 -- -- 82
2019-06-19 04:00:00 11.2 0 Calma 5 Norte 0 -- -- 79
2019-06-19 03:00:00 12.5 0 Calma 5 Norte 0 -- -- 75
2019-06-19 02:00:00 13.3 0 Calma 4 Sudeste 0 -- -- 70
2019-06-19 01:00:00 14.8 0 Calma 5 Noroeste 0 -- -- 64
2019-06-19 00:00:00 16.5 0 Calma 5 Sur 0 -- -- 52
2019-06-18 23:00:00 19.6 2 Sudoeste 12 Sudeste 0 -- -- 39
2019-06-18 22:00:00 23.6 4 Oeste 19 Oeste 0 -- -- 28
2019-06-18 21:00:00 25.1 5 Oeste 17 Sudoeste 0 -- -- 27
2019-06-18 20:00:00 26.5 6 Oeste 23 Sudoeste 0 -- -- 28
2019-06-18 19:00:00 27.8 6 Sudoeste 21 Oeste 0 -- -- 26
2019-06-18 18:00:00 28.2 9 Sudoeste 25 Sudoeste 0 -- -- 25
2019-06-18 17:00:00 29.4 7 Sudoeste 23 Sudoeste 0 -- -- 24
2019-06-18 16:00:00 29.4 7 Sudoeste 26 Sudoeste 0 -- -- 24
2019-06-18 15:00:00 28 6 Sudoeste 21 Sudoeste 0 -- -- 28
2019-06-18 14:00:00 28.1 4 Oeste 16 Sudoeste 0 -- -- 31
2019-06-18 13:00:00 26 3 Sur 9 Sudoeste 0 -- -- 42
2019-06-18 12:00:00 23.1 2 Sudoeste 6 Sudoeste 0 -- -- 49
2019-06-18 11:00:00 21.1 2 Sudoeste 5 Oeste 0 -- -- 53
2019-06-18 10:00:00 19.8 3 Sur 5 Sur 0 -- -- 57
2019-06-18 09:00:00 17.9 2 Sudoeste 5 Sur 0 -- -- 68
2019-06-18 08:00:00 14.2 3 Sudoeste 6 Nordeste 0 -- -- 86
2019-06-18 07:00:00 12.8 3 Sudoeste 6 Sudoeste 0 -- -- 89
2019-06-18 06:00:00 12.5 0 Calma 4 Nordeste 0 -- -- 89
2019-06-18 05:00:00 12.9 0 Calma 5 Noroeste 0 -- -- 87
2019-06-18 04:00:00 13.6 2 Sudoeste 4 Sudoeste 0 -- -- 85
2019-06-18 03:00:00 14.4 0 Calma 4 Noroeste 0 -- -- 83
2019-06-18 02:00:00 15.1 0 Calma 3 Noroeste 0 -- -- 81
2019-06-18 01:00:00 15.4 0 Calma 3 Nordeste 0 -- -- 82
2019-06-18 00:00:00 17.9 0 Calma 5 Sudeste 0 -- -- 64
2019-06-17 23:00:00 19.6 0 Calma 6 Sur 0 -- -- 54
2019-06-17 22:00:00 23.3 2 Noroeste 9 Oeste 0 -- -- 39
2019-06-17 21:00:00 25.5 4 Oeste 14 Sudoeste 0 -- -- 32
2019-06-17 20:00:00 27.2 6 Sudoeste 18 Sudoeste 0 -- -- 23
2019-06-17 19:00:00 27.6 7 Sudoeste 19 Sudoeste 0 -- -- 22
2019-06-17 18:00:00 28.3 6 Sudoeste 24 Sudoeste 0 -- -- 22
2019-06-17 17:00:00 29.1 7 Sudoeste 17 Sudoeste 0 -- -- 22
2019-06-17 16:00:00 29.3 4 Sudoeste 19 Sudoeste 0 -- -- 21
2019-06-17 15:00:00 29.1 3 Oeste 13 Oeste 0 -- -- 21
2019-06-17 14:00:00 27.9 3 Sudoeste 9 Sur 0 -- -- 24
2019-06-17 13:00:00 26.8 2 Sudoeste 7 Sur 0 -- -- 31
2019-06-17 12:00:00 24.9 0 Calma 6 Sudoeste 0 -- -- 36
2019-06-17 11:00:00 22.5 0 Calma 8 Oeste 0 -- -- 42
2019-06-17 10:00:00 19.8 0 Calma 4 Este 0 -- -- 49
2019-06-17 09:00:00 16.7 0 Calma 5 Este 0 -- -- 62
2019-06-17 08:00:00 11.8 0 Calma 4 Este 0 -- -- 90
2019-06-17 07:00:00 9.3 2 Sudoeste 4 Sudoeste 0 -- -- 91
2019-06-17 06:00:00 9.6 2 Nordeste 5 Norte 0 -- -- 89
2019-06-17 05:00:00 10.1 0 Calma 5 Noroeste 0 -- -- 88
2019-06-17 04:00:00 11 0 Calma 4 Norte 0 -- -- 85
2019-06-17 03:00:00 11.7 0 Calma 4 Sur 0 -- -- 82
2019-06-17 02:00:00 13 0 Calma 4 Norte 0 -- -- 78
2019-06-17 01:00:00 13.9 0 Calma 6 Noroeste 0 -- -- 72
2019-06-17 00:00:00 15.2 0 Calma 5 Sudeste 0 -- -- 66
2019-06-16 23:00:00 17 0 Calma 4 Sudoeste 0 -- -- 56
2019-06-16 22:00:00 20 0 Calma 8 Norte 0 -- -- 42
2019-06-16 21:00:00 23 0 Calma 15 Oeste 0 -- -- 33
2019-06-16 20:00:00 24.7 4 Oeste 16 Sudoeste 0 -- -- 31
2019-06-16 19:00:00 25.6 7 Sudoeste 15 Sudoeste 0 -- -- 29
2019-06-16 18:00:00 26 5 Sudoeste 15 Sudoeste 0 -- -- 26
2019-06-16 17:00:00 27 3 Sudoeste 13 Sur 0 -- -- 23
2019-06-16 16:00:00 26.6 4 Oeste 18 Sudoeste 0 -- -- 25
2019-06-16 15:00:00 26.2 5 Sudoeste 17 Noroeste 0 -- -- 28
2019-06-16 14:00:00 24.8 4 Sudoeste 14 Oeste 0 -- -- 30
2019-06-16 13:00:00 24.2 2 Este 8 Este 0 -- -- 36
2019-06-16 12:00:00 21.9 2 Sudoeste 8 Sur 0 -- -- 41
2019-06-16 11:00:00 19.5 0 Calma 6 Noroeste 0 -- -- 45
2019-06-16 10:00:00 17.3 3 Sudoeste 6 Sudoeste 0 -- -- 53
2019-06-16 09:00:00 14.2 0 Calma 5 Noroeste 0 -- -- 68
2019-06-16 08:00:00 9.9 2 Sudoeste 5 Sudoeste 0 -- -- 91
2019-06-16 07:00:00 7.7 0 Calma 5 Nordeste 0 -- -- 91
2019-06-16 06:00:00 8.3 0 Calma 2 Sur 0 -- -- 89
2019-06-16 05:00:00 9.1 0 Calma 4 Nordeste 0 -- -- 85
2019-06-16 04:00:00 10.4 2 Sudoeste 5 Sudoeste 0 -- -- 78
2019-06-16 03:00:00 11.8 4 Sudoeste 20 Este 0 -- -- 70
2019-06-16 02:00:00 13.6 7 Nordeste 22 Este 0 -- -- 66
2019-06-16 01:00:00 14.1 11 Este 23 Nordeste 0 -- -- 65
2019-06-16 00:00:00 15.5 14 Nordeste 27 Este 0 -- -- 54
2019-06-15 23:00:00 16.7 11 Este 25 Este 0 -- -- 51
2019-06-15 22:00:00 18.1 8 Nordeste 15 Este 0 -- -- 43
2019-06-15 21:00:00 20.5 0 Calma 15 Sudoeste 0 -- -- 33
2019-06-15 20:00:00 22.7 5 Sudoeste 22 Sudoeste 0 -- -- 30
2019-06-15 19:00:00 23.1 8 Sudoeste 26 Sudoeste 0 -- -- 32
2019-06-15 18:00:00 23.6 8 Sudoeste 22 Sudoeste 0 -- -- 32
2019-06-15 17:00:00 24.4 7 Oeste 24 Sudoeste 0 -- -- 31
2019-06-15 16:00:00 24.7 5 Sudoeste 24 Sudoeste 0 -- -- 31
2019-06-15 15:00:00 23.1 7 Sudoeste 30 Sudoeste 0 -- -- 29
2019-06-15 14:00:00 24.8 4 Sudoeste 22 Sudeste 0 -- -- 27
2019-06-15 13:00:00 23.5 6 Sudoeste 19 Sudoeste 0 -- -- 30
2019-06-15 12:00:00 22.1 5 Oeste 18 Sudoeste 0 -- -- 34
2019-06-15 11:00:00 22 0 Calma 6 Sudoeste 0 -- -- 50
2019-06-15 10:00:00 17.7 3 Sudoeste 6 Sudeste 0 -- -- 65
2019-06-15 09:00:00 15.6 2 Este 6 Nordeste 0 -- -- 78
2019-06-15 08:00:00 12.1 0 Calma 4 Oeste 0 -- -- 93
2019-06-15 07:00:00 10.5 0 Calma 4 Nordeste 0 -- -- 93
2019-06-15 06:00:00 10.4 0 Calma 4 Norte 0 -- -- 92
2019-06-15 05:00:00 11 0 Calma 3 Noroeste 0 -- -- 91
2019-06-15 04:00:00 11.9 0 Calma 3 Noroeste 0 -- -- 89
2019-06-15 03:00:00 12.9 0 Calma 5 Nordeste 0 -- -- 88
2019-06-15 02:00:00 13 0 Calma 3 Noroeste 0 -- -- 86
2019-06-15 01:00:00 13.1 0 Calma 4 Sur 0 -- -- 85
2019-06-15 00:00:00 14.1 0 Calma 4 Norte 0 -- -- 80
2019-06-14 23:00:00 15.5 0 Calma 4 Norte 0 -- -- 74
2019-06-14 22:00:00 17.8 0 Calma 4 Sur 0 -- -- 64
2019-06-14 21:00:00 21 0 Calma 8 Sudoeste 0 -- -- 48
2019-06-14 20:00:00 22.7 5 Sudoeste 18 Sur 0 -- -- 42
2019-06-14 19:00:00 22.9 6 Sudoeste 14 Sudoeste 0 -- -- 44
2019-06-14 18:00:00 22.5 2 Este 16 Sur 0 -- -- 46
2019-06-14 17:00:00 21.1 5 Sudoeste 31 Sudoeste 0 -- -- 49
2019-06-14 16:00:00 24.4 8 Sudoeste 30 Sudoeste 0 -- -- 40
2019-06-14 15:00:00 24.8 3 Oeste 14 Sudoeste 0 -- -- 41
2019-06-14 14:00:00 22.1 3 Sudoeste 12 Nordeste 0 -- -- 52
2019-06-14 13:00:00 22.3 0 Calma 8 Oeste 0 -- -- 47
2019-06-14 12:00:00 20 3 Sudoeste 9 Este 0 -- -- 56
2019-06-14 11:00:00 16.5 0 Calma 12 Sudoeste 0 -- -- 68
2019-06-14 10:00:00 15.1 0 Calma 10 Sudoeste 0.1 -- -- 82
2019-06-14 09:00:00 13.8 0 Calma 10 Este 0.1 -- -- 84
2019-06-14 08:00:00 12.9 3 Nordeste 11 Este 0 -- -- 79
2019-06-14 07:00:00 12.7 0 Calma 12 Sudoeste 0 -- -- 76
2019-06-14 06:00:00 12.8 0 Calma 18 Nordeste 0 -- -- 76
2019-06-14 05:00:00 12 2 Noroeste 10 Nordeste 0 -- -- 83
2019-06-14 04:00:00 11.3 3 Norte 7 Norte 0 -- -- 88
2019-06-14 03:00:00 11 0 Calma 5 Nordeste 0 -- -- 88
2019-06-14 02:00:00 10.9 0 Calma 5 Norte 0 -- -- 88
2019-06-14 01:00:00 11.5 0 Calma 6 Sudeste 0 -- -- 87
2019-06-14 00:00:00 13.7 0 Calma 8 Este 0 -- -- 71
2019-06-13 23:00:00 15.4 0 Calma 5 Nordeste 0 -- -- 60
2019-06-13 22:00:00 18.1 0 Calma 6 Sudoeste 0 -- -- 46
2019-06-13 21:00:00 20.3 0 Calma 12 Sudoeste 0 -- -- 35
2019-06-13 20:00:00 21.9 3 Oeste 12 Sudoeste 0 -- -- 29
2019-06-13 19:00:00 22 4 Oeste 19 Sudoeste 0 -- -- 29
2019-06-13 18:00:00 23.1 9 Sudoeste 23 Sudoeste 0 -- -- 27
2019-06-13 17:00:00 23.7 8 Oeste 25 Sudoeste 0 -- -- 27
2019-06-13 16:00:00 23.8 8 Sudoeste 26 Sudoeste 0 -- -- 29
2019-06-13 15:00:00 23.3 4 Sudoeste 15 Sudoeste 0 -- -- 29
2019-06-13 14:00:00 22.6 2 Oeste 10 Oeste 0 -- -- 32
2019-06-13 13:00:00 21.6 2 Oeste 9 Noroeste 0 -- -- 32
2019-06-13 12:00:00 19.5 2 Sudoeste 6 Sudoeste 0 -- -- 37
2019-06-13 11:00:00 17.1 0 Calma 5 Sur 0 -- -- 41
2019-06-13 10:00:00 14 2 Sudeste 5 Sudoeste 0 -- -- 50
2019-06-13 09:00:00 10.7 3 Sudoeste 6 Sudoeste 0 -- -- 67
2019-06-13 08:00:00 6.4 0 Calma 4 Sudoeste 0 -- -- 92
2019-06-13 07:00:00 4 0 Calma 4 Nordeste 0 -- -- 92
2019-06-13 06:00:00 4.6 0 Calma 3 Este 0 -- -- 92
2019-06-13 05:00:00 4.9 0 Calma 4 Norte 0 -- -- 91
2019-06-13 04:00:00 5.5 0 Calma 5 Norte 0 -- -- 89
2019-06-13 03:00:00 6.1 0 Calma 4 Nordeste 0 -- -- 87
2019-06-13 02:00:00 6.7 0 Calma 6 Noroeste 0 -- -- 84
2019-06-13 01:00:00 7.4 0 Calma 4 Sudoeste 0 -- -- 80
2019-06-13 00:00:00 8.6 0 Calma 5 Norte 0 -- -- 75
2019-06-12 23:00:00 10.1 0 Calma 4 Noroeste 0 -- -- 67
2019-06-12 22:00:00 12.5 0 Calma 6 Sudoeste 0 -- -- 51
2019-06-12 21:00:00 15.7 0 Calma 7 Sudoeste 0 -- -- 39
2019-06-12 20:00:00 17.7 3 Sudoeste 13 Sudoeste 0 -- -- 31
2019-06-12 19:00:00 17.7 5 Sudoeste 17 Sur 0 -- -- 32
2019-06-12 18:00:00 18 7 Oeste 22 Sudoeste 0 -- -- 30
2019-06-12 17:00:00 18.8 5 Sudoeste 21 Sudoeste 0 -- -- 30
2019-06-12 16:00:00 17.6 2 Sur 15 Sudoeste 0 -- -- 31
2019-06-12 15:00:00 18.7 4 Sudoeste 21 Sudoeste 0 -- -- 32
2019-06-12 14:00:00 17 6 Sudoeste 23 Sudoeste 0 -- -- 35
2019-06-12 13:00:00 16.5 2 Oeste 10 Sur 0 -- -- 42
2019-06-12 12:00:00 14.7 0 Calma 9 Este 0 -- -- 51
2019-06-12 11:00:00 11.7 2 Sur 8 Oeste 0 -- -- 60
2019-06-12 10:00:00 9.7 3 Sur 7 Sudeste 0 -- -- 79
2019-06-12 09:00:00 7.6 2 Este 8 Nordeste 0 -- -- 97
2019-06-12 08:00:00 4.5 3 Nordeste 5 Nordeste 0 -- -- 97
2019-06-12 07:00:00 3.2 0 Calma 4 Sur 0 -- -- 97
2019-06-12 06:00:00 3.9 0 Calma 7 Este 0 -- -- 97
2019-06-12 05:00:00 4.5 0 Calma 4 Sur 0 -- -- 98
2019-06-12 04:00:00 4.3 0 Calma 5 Nordeste 0 -- -- 97
2019-06-12 03:00:00 4.4 0 Calma 3 Oeste 0 -- -- 97
2019-06-12 02:00:00 5 0 Calma 4 Norte 0 -- -- 97
2019-06-12 01:00:00 5.9 2 Nordeste 5 Nordeste 0 -- -- 96
2019-06-12 00:00:00 6.8 0 Calma 4 Nordeste 0 -- -- 94
2019-06-11 23:00:00 7.8 0 Calma 5 Nordeste 0 -- -- 92
2019-06-11 22:00:00 8.7 0 Calma 8 Sudoeste 0 -- -- 90
2019-06-11 21:00:00 9.8 3 Oeste 7 Este 0 -- -- 86
2019-06-11 20:00:00 10.7 2 Sudoeste 14 Sur 0.6 -- -- 83
2019-06-11 19:00:00 10.2 4 Sudoeste 13 Sudoeste 0.9 -- -- 78
2019-06-11 18:00:00 12.7 0 Calma 6 Sudoeste 0.2 -- -- 79
2019-06-11 17:00:00 12.4 0 Calma 6 Sudoeste 0 -- -- 78
2019-06-11 16:00:00 12.2 0 Calma 8 Sudoeste 0 -- -- 82
2019-06-11 15:00:00 12.3 0 Calma 5 Sudoeste 0.3 -- -- 82
2019-06-11 14:00:00 11.3 3 Sudoeste 6 Sur 0.5 -- -- 89
2019-06-11 13:00:00 10.8 0 Calma 4 Oeste 1.2 -- -- 91
2019-06-11 12:00:00 10.1 0 Calma 4 Sudoeste 2.1 -- -- 94
2019-06-11 11:00:00 10 0 Calma 4 Oeste 2 -- -- 94
2019-06-11 10:00:00 9.8 0 Calma 4 Noroeste 0.9 -- -- 94
2019-06-11 09:00:00 9.8 0 Calma 4 Sudeste 0.4 -- -- 94
2019-06-11 08:00:00 9.8 0 Calma 5 Sudoeste 0.7 -- -- 93
2019-06-11 07:00:00 9.7 0 Calma 8 Nordeste 1.6 -- -- 91
2019-06-11 06:00:00 10 3 Nordeste 8 Nordeste 0.8 -- -- 87
2019-06-11 05:00:00 10.7 7 Nordeste 14 Nordeste 0.7 -- -- 77
2019-06-11 04:00:00 13.4 5 Noroeste 17 Oeste 0 -- -- 55
2019-06-11 03:00:00 13.1 0 Calma 6 Este 0 -- -- 61
2019-06-11 02:00:00 13.7 0 Calma 9 Este 0 -- -- 59
2019-06-11 01:00:00 14.4 4 Este 22 Nordeste 0 -- -- 55
2019-06-11 00:00:00 14.9 9 Este 21 Nordeste 0 -- -- 52
2019-06-10 23:00:00 17.2 2 Sudeste 14 Sur 0 -- -- 42
2019-06-10 22:00:00 18.2 0 Calma 10 Sur 0 -- -- 39
2019-06-10 21:00:00 20.2 3 Sudoeste 15 Sudoeste 0 -- -- 36
2019-06-10 20:00:00 21.2 6 Sudoeste 19 Sudoeste 0 -- -- 37
2019-06-10 19:00:00 21.9 5 Sudoeste 22 Oeste 0 -- -- 40
2019-06-10 18:00:00 22.2 7 Sudoeste 21 Sudoeste 0 -- -- 41
2019-06-10 17:00:00 22.3 7 Sudoeste 26 Sudoeste 0 -- -- 40
2019-06-10 16:00:00 23.3 10 Sudoeste 27 Sudoeste 0 -- -- 40
2019-06-10 15:00:00 23.2 9 Sudoeste 25 Sudoeste 0 -- -- 39
2019-06-10 14:00:00 23.2 8 Oeste 20 Sudoeste 0 -- -- 37
2019-06-10 13:00:00 22.5 4 Sudoeste 12 Sudoeste 0 -- -- 44
2019-06-10 12:00:00 21.4 4 Nordeste 17 Nordeste 0 -- -- 51
2019-06-10 11:00:00 19.6 0 Calma 14 Sudoeste 0 -- -- 61
2019-06-10 10:00:00 14.6 0 Calma 16 Sudoeste 0.1 -- -- 81
2019-06-10 09:00:00 15.7 3 Sur 9 Sudoeste 0 -- -- 76
2019-06-10 08:00:00 12.8 0 Calma 7 Sudoeste 0 -- -- 85
2019-06-10 07:00:00 12.4 0 Calma 8 Sudoeste 0 -- -- 84
2019-06-10 06:00:00 12.7 0 Calma 5 Oeste 0 -- -- 82
2019-06-10 05:00:00 13.5 3 Oeste 6 Noroeste 0 -- -- 76
2019-06-10 04:00:00 15.2 2 Oeste 12 Este 0 -- -- 67
2019-06-10 03:00:00 16.5 3 Nordeste 19 Nordeste 0 -- -- 64
2019-06-10 02:00:00 17.3 3 Este 21 Sudeste 0 -- -- 61
2019-06-10 01:00:00 17.9 6 Este 23 Este 0 -- -- 60
2019-06-10 00:00:00 18.4 9 Este 27 Este 0 -- -- 57
2019-06-09 23:00:00 19 9 Este 25 Este 0 -- -- 56
2019-06-09 22:00:00 18.1 0 Calma 4 Nordeste 0 -- -- 56
2019-06-09 21:00:00 21.4 2 Sudoeste 6 Noroeste 0 -- -- 44
2019-06-09 20:00:00 23.9 3 Noroeste 8 Noroeste 0 -- -- 37
2019-06-09 19:00:00 24 0 Calma 4 Sur 0 -- -- 38
2019-06-09 18:00:00 24 0 Calma 9 Oeste 0 -- -- 37
2019-06-09 17:00:00 25 0 Calma 9 Sudoeste 0 -- -- 34
2019-06-09 16:00:00 25.2 0 Calma 12 Oeste 0 -- -- 34
2019-06-09 15:00:00 24.1 5 Oeste 16 Sudoeste 0 -- -- 33
2019-06-09 14:00:00 23.6 8 Sudoeste 19 Oeste 0 -- -- 35
2019-06-09 13:00:00 23.3 4 Sudoeste 13 Sudoeste 0 -- -- 38
2019-06-09 12:00:00 23 0 Calma 6 Sur 0 -- -- 42
2019-06-09 11:00:00 20.4 2 Nordeste 5 Nordeste 0 -- -- 51
2019-06-09 10:00:00 17.5 0 Calma 6 Noroeste 0 -- -- 62
2019-06-09 09:00:00 14.5 0 Calma 8 Sudoeste 0 -- -- 76
2019-06-09 08:00:00 13.5 5 Sudoeste 12 Nordeste 0 -- -- 79
2019-06-09 07:00:00 13.2 4 Oeste 9 Oeste 0 -- -- 80
2019-06-09 06:00:00 12.9 3 Nordeste 5 Nordeste 0 -- -- 81
2019-06-09 05:00:00 12.8 0 Calma 4 Noroeste 0 -- -- 81
2019-06-09 04:00:00 13.1 0 Calma 4 Noroeste 0 -- -- 79
2019-06-09 03:00:00 13.5 0 Calma 3 Nordeste 0 -- -- 75
2019-06-09 02:00:00 13.7 0 Calma 4 Noroeste 0 -- -- 74
2019-06-09 01:00:00 14 0 Calma 5 Noroeste 0 -- -- 68
2019-06-09 00:00:00 15.7 0 Calma 7 Noroeste 0 -- -- 57
2019-06-08 23:00:00 17.8 3 Norte 10 Oeste 0 -- -- 48
2019-06-08 22:00:00 19.1 6 Oeste 12 Sudoeste 0 -- -- 44
2019-06-08 21:00:00 20.7 3 Oeste 24 Sudoeste 0 -- -- 41
2019-06-08 20:00:00 22.5 6 Oeste 23 Sudoeste 0 -- -- 36
2019-06-08 19:00:00 23.9 6 Oeste 24 Sudoeste 0 -- -- 28
2019-06-08 18:00:00 23.9 8 Sudoeste 24 Sudoeste 0 -- -- 28
2019-06-08 17:00:00 25.3 6 Sudoeste 21 Sudoeste 0 -- -- 26
2019-06-08 16:00:00 25.3 6 Sudoeste 19 Sudoeste 0 -- -- 25
2019-06-08 15:00:00 25.5 0 Calma 14 Sudoeste 0 -- -- 25
2019-06-08 14:00:00 23.9 4 Oeste 13 Oeste 0 -- -- 27
2019-06-08 13:00:00 22.2 2 Nordeste 16 Nordeste 0 -- -- 30
2019-06-08 12:00:00 20.1 4 Sudoeste 10 Sudoeste 0 -- -- 34
2019-06-08 11:00:00 18 0 Calma 5 Sur 0 -- -- 39
2019-06-08 10:00:00 15.6 3 Nordeste 6 Este 0 -- -- 48
2019-06-08 09:00:00 12.4 2 Sudoeste 5 Sudoeste 0 -- -- 61
2019-06-08 08:00:00 7.9 0 Calma 4 Nordeste 0 -- -- 87
2019-06-08 07:00:00 5.1 0 Calma 4 Noroeste 0 -- -- 88
2019-06-08 06:00:00 5.6 0 Calma 4 Norte 0 -- -- 85
2019-06-08 05:00:00 6.6 0 Calma 5 Sudeste 0 -- -- 80
2019-06-08 04:00:00 7.4 0 Calma 5 Noroeste 0 -- -- 76
2019-06-08 03:00:00 8.6 3 Sudoeste 7 Sudoeste 0 -- -- 69
2019-06-08 02:00:00 9.8 4 Oeste 14 Este 0 -- -- 62
2019-06-08 01:00:00 11.6 3 Nordeste 10 Este 0 -- -- 62
2019-06-08 00:00:00 10.4 0 Calma 7 Este 0 -- -- 59
2019-06-07 23:00:00 12.3 0 Calma 5 Norte 0 -- -- 52
2019-06-07 22:00:00 14.9 0 Calma 5 Noroeste 0 -- -- 40
2019-06-07 21:00:00 18.7 3 Sudoeste 18 Sudoeste 0 -- -- 28
2019-06-07 20:00:00 20.5 7 Sudoeste 20 Oeste 0 -- -- 22
2019-06-07 19:00:00 21 5 Sudoeste 21 Sur 0 -- -- 20
2019-06-07 18:00:00 21.4 6 Sudoeste 26 Sudoeste 0 -- -- 20
2019-06-07 17:00:00 22.1 5 Sudoeste 18 Sur 0 -- -- 25
2019-06-07 16:00:00 22.1 8 Sudoeste 18 Sudoeste 0 -- -- 29
2019-06-07 15:00:00 21 7 Sudoeste 25 Sudoeste 0 -- -- 35
2019-06-07 14:00:00 19.7 8 Sudoeste 25 Sudoeste 0 -- -- 41
2019-06-07 13:00:00 19.7 9 Sudoeste 32 Sudoeste 0 -- -- 43
2019-06-07 12:00:00 19.7 8 Sudoeste 26 Sudoeste 0 -- -- 44
2019-06-07 11:00:00 18.9 6 Sudoeste 14 Sudoeste 0 -- -- 48
2019-06-07 10:00:00 17.8 0 Calma 8 Nordeste 0 -- -- 57
2019-06-07 09:00:00 13.3 3 Sudoeste 5 Sudoeste 0 -- -- 71
2019-06-07 08:00:00 8.7 2 Este 6 Este 0 -- -- 92
2019-06-07 07:00:00 6.6 0 Calma 6 Sur 0 -- -- 92
2019-06-07 06:00:00 6.7 2 Nordeste 6 Nordeste 0 -- -- 92
2019-06-07 05:00:00 6.8 0 Calma 7 Noroeste 0 -- -- 91
2019-06-07 04:00:00 7.1 0 Calma 5 Sur 0 -- -- 91
2019-06-07 03:00:00 7.6 0 Calma 4 Noroeste 0 -- -- 90
2019-06-07 02:00:00 8.2 0 Calma 5 Noroeste 0 -- -- 89
2019-06-07 01:00:00 8.8 0 Calma 4 Sur 0 -- -- 88
2019-06-07 00:00:00 10.6 0 Calma 5 Norte 0 -- -- 76
2019-06-06 23:00:00 12.2 0 Calma 4 Nordeste 0 -- -- 65
2019-06-06 22:00:00 15.1 0 Calma 8 Noroeste 0 -- -- 47
2019-06-06 21:00:00 17 3 Noroeste 16 Noroeste 0 -- -- 40
2019-06-06 20:00:00 18.1 6 Sudoeste 23 Sudoeste 0 -- -- 37
2019-06-06 19:00:00 19.1 6 Sudoeste 20 Sudoeste 0 -- -- 37
2019-06-06 18:00:00 18.9 8 Sudoeste 28 Sur 0 -- -- 38
2019-06-06 17:00:00 19.8 10 Sudoeste 28 Sudoeste 0 -- -- 33
2019-06-06 16:00:00 21.2 7 Oeste 24 Sur 0 -- -- 28
2019-06-06 15:00:00 20 9 Sudoeste 28 Sudoeste 0 -- -- 29
2019-06-06 14:00:00 19.7 10 Sudoeste 23 Sudoeste 0 -- -- 32
2019-06-06 13:00:00 19.1 7 Sudoeste 18 Sur 0 -- -- 36
2019-06-06 12:00:00 18.5 0 Calma 9 Oeste 0 -- -- 42
2019-06-06 11:00:00 16.3 0 Calma 8 Sur 0 -- -- 47
2019-06-06 10:00:00 14 2 Sudoeste 6 Este 0 -- -- 57
2019-06-06 09:00:00 10.9 0 Calma 5 Oeste 0 -- -- 75
2019-06-06 08:00:00 7.2 0 Calma 5 Nordeste 0 -- -- 94
2019-06-06 07:00:00 5 0 Calma 4 Nordeste 0 -- -- 94
2019-06-06 06:00:00 5.3 0 Calma 5 Nordeste 0 -- -- 94
2019-06-06 05:00:00 5.9 0 Calma 4 Norte 0 -- -- 92
2019-06-06 04:00:00 6.8 0 Calma 4 Nordeste 0 -- -- 91
2019-06-06 03:00:00 7.2 3 Sudoeste 5 Sur 0 -- -- 91
2019-06-06 02:00:00 7.7 0 Calma 7 Norte 0 -- -- 89
2019-06-06 01:00:00 8.3 0 Calma 4 Noroeste 0 -- -- 87
2019-06-06 00:00:00 10.4 0 Calma 6 Nordeste 0 -- -- 76
2019-06-05 23:00:00 12.3 0 Calma 13 Sudoeste 0 -- -- 60
2019-06-05 22:00:00 14 4 Sudoeste 14 Sudoeste 0 -- -- 49
2019-06-05 21:00:00 15.9 5 Oeste 18 Sudoeste 0 -- -- 45
2019-06-05 20:00:00 17.3 6 Oeste 20 Sudoeste 0 -- -- 44
2019-06-05 19:00:00 18.3 2 Sudoeste 9 Nordeste 0 -- -- 49
2019-06-05 18:00:00 18.6 4 Nordeste 12 Este 0 -- -- 54
2019-06-05 17:00:00 18.3 4 Nordeste 16 Este 0 -- -- 59
2019-06-05 16:00:00 15.6 6 Nordeste 12 Este 0.4 -- -- 76
2019-06-05 15:00:00 16.3 3 Noroeste 17 Sudoeste 0 -- -- 75
2019-06-05 14:00:00 16 6 Oeste 21 Sudoeste 0 -- -- 78
2019-06-05 13:00:00 16.9 12 Oeste 38 Sur 0 -- -- 60
2019-06-05 12:00:00 20.9 12 Sudoeste 33 Sudoeste 0 -- -- 35
2019-06-05 11:00:00 19.7 0 Calma 9 Oeste 0 -- -- 43
2019-06-05 10:00:00 15.3 0 Calma 7 Nordeste 0 -- -- 58
2019-06-05 09:00:00 12.7 0 Calma 5 Sudoeste 0 -- -- 75
2019-06-05 08:00:00 11.2 0 Calma 5 Noroeste 0 -- -- 80
2019-06-05 07:00:00 9.9 0 Calma 5 Noroeste 0 -- -- 83
2019-06-05 06:00:00 10.9 0 Calma 5 Norte 0 -- -- 80
2019-06-05 05:00:00 12 0 Calma 4 Norte 0 -- -- 78
2019-06-05 04:00:00 13.3 0 Calma 5 Noroeste 0 -- -- 77
2019-06-05 03:00:00 13.9 0 Calma 5 Noroeste 0 -- -- 76
2019-06-05 02:00:00 13.9 0 Calma 4 Nordeste 0 -- -- 78
2019-06-05 01:00:00 13.6 2 Nordeste 5 Noroeste 0 -- -- 81
2019-06-05 00:00:00 15.1 0 Calma 5 Sur 0 -- -- 69
2019-06-04 23:00:00 17.1 2 Norte 5 Sudoeste 0 -- -- 55
2019-06-04 22:00:00 19.4 0 Calma 5 Oeste 0 -- -- 46
2019-06-04 21:00:00 22.9 0 Calma 11 Oeste 0 -- -- 33
2019-06-04 20:00:00 25 5 Oeste 18 Sudoeste 0 -- -- 29
2019-06-04 19:00:00 26.4 6 Oeste 17 Sudoeste 0 -- -- 29
2019-06-04 18:00:00 27 6 Sudoeste 27 Oeste 0 -- -- 27
2019-06-04 17:00:00 28 7 Sudoeste 23 Sudoeste 0 -- -- 26
2019-06-04 16:00:00 28.4 6 Sudoeste 22 Sudoeste 0 -- -- 26
2019-06-04 15:00:00 28 7 Sudoeste 24 Sudoeste 0 -- -- 26
2019-06-04 14:00:00 26.7 8 Oeste 26 Sudoeste 0 -- -- 28
2019-06-04 13:00:00 26.1 3 Sudoeste 10 Noroeste 0 -- -- 32
2019-06-04 12:00:00 24.7 0 Calma 9 Sudoeste 0 -- -- 42
2019-06-04 11:00:00 21.5 2 Sudoeste 6 Sudoeste 0 -- -- 45
2019-06-04 10:00:00 19.3 2 Nordeste 4 Este 0 -- -- 53
2019-06-04 09:00:00 15.3 0 Calma 3 Sur 0 -- -- 68
2019-06-04 08:00:00 11.5 0 Calma 3 Nordeste 0 -- -- 90
2019-06-04 07:00:00 9.7 0 Calma 5 Nordeste 0 -- -- 91
2019-06-04 06:00:00 9.9 0 Calma 3 Noroeste 0 -- -- 89
2019-06-04 05:00:00 10.5 0 Calma 4 Nordeste 0 -- -- 88
2019-06-04 04:00:00 11.4 2 Nordeste 3 Nordeste 0 -- -- 86
2019-06-04 03:00:00 12.1 0 Calma 4 Nordeste 0 -- -- 83
2019-06-04 02:00:00 12.5 0 Calma 3 Norte 0 -- -- 81
2019-06-04 01:00:00 13.5 0 Calma 4 Nordeste 0 -- -- 76
2019-06-04 00:00:00 14.6 0 Calma 4 Noroeste 0 -- -- 70
2019-06-03 23:00:00 16.5 0 Calma 4 Este 0 -- -- 60
2019-06-03 22:00:00 19 0 Calma 8 Noroeste 0 -- -- 46
2019-06-03 21:00:00 23.1 4 Noroeste 12 Noroeste 0 -- -- 32
2019-06-03 20:00:00 24.8 4 Noroeste 14 Noroeste 0 -- -- 31
2019-06-03 19:00:00 25.8 4 Sudoeste 12 Oeste 0 -- -- 30
2019-06-03 18:00:00 25.9 6 Oeste 21 Sudoeste 0 -- -- 29
2019-06-03 17:00:00 26.8 4 Oeste 18 Sudoeste 0 -- -- 31
2019-06-03 16:00:00 26.1 5 Sudoeste 13 Sudoeste 0 -- -- 35
2019-06-03 15:00:00 26.2 0 Calma 6 Sudoeste 0 -- -- 43
2019-06-03 14:00:00 22.4 0 Calma 8 Este 0 -- -- 53
2019-06-03 13:00:00 21.3 0 Calma 12 Sudoeste 0 -- -- 62
2019-06-03 12:00:00 21.1 4 Sudoeste 7 Oeste 0 -- -- 59
2019-06-03 11:00:00 18.6 2 Sur 8 Sudoeste 0 -- -- 74
2019-06-03 10:00:00 15.3 0 Calma 13 Sudoeste 0 -- -- 94
2019-06-03 09:00:00 13.4 3 Oeste 9 Sudoeste 0.6 -- -- 95
2019-06-03 08:00:00 13 2 Sudoeste 5 Nordeste 0 -- -- 95
2019-06-03 07:00:00 11.5 0 Calma 3 Nordeste 0 -- -- 95
2019-06-03 06:00:00 11.5 2 Nordeste 4 Norte 0 -- -- 95
2019-06-03 05:00:00 12 0 Calma 3 Noroeste 0 -- -- 95
2019-06-03 04:00:00 12.2 0 Calma 5 Noroeste 0 -- -- 95
2019-06-03 03:00:00 12.8 0 Calma 4 Noroeste 0 -- -- 95
2019-06-03 02:00:00 13.4 0 Calma 6 Sudoeste 0 -- -- 95
2019-06-03 01:00:00 14 0 Calma 5 Noroeste 0 -- -- 94
2019-06-03 00:00:00 15.2 0 Calma 5 Sudoeste 0 -- -- 91
2019-06-02 23:00:00 16.4 0 Calma 5 Sudoeste 0 -- -- 89
2019-06-02 22:00:00 17.8 2 Sudoeste 13 Sudoeste 0 -- -- 87
2019-06-02 21:00:00 18.5 0 Calma 8 Nordeste 0 -- -- 84
2019-06-02 20:00:00 19.2 0 Calma 11 Sudoeste 0.1 -- -- 83
2019-06-02 19:00:00 20.1 3 Nordeste 28 Sudeste 1.6 -- -- 67
2019-06-02 18:00:00 27.4 3 Sudoeste 24 Sur 0 -- -- 28
2019-06-02 17:00:00 29 9 Sudoeste 25 Sudeste 0 -- -- 27
2019-06-02 16:00:00 29.7 6 Sudoeste 18 Sudoeste 0 -- -- 27
2019-06-02 15:00:00 29.3 7 Sudoeste 20 Sudoeste 0 -- -- 28
2019-06-02 14:00:00 28.8 8 Sudoeste 16 Sudoeste 0 -- -- 29
2019-06-02 13:00:00 27.1 2 Sudeste 10 Sudeste 0 -- -- 37
2019-06-02 12:00:00 25 2 Este 7 Sudoeste 0 -- -- 37
2019-06-02 11:00:00 23.3 0 Calma 6 Sur 0 -- -- 42
2019-06-02 10:00:00 20.7 0 Calma 4 Este 0 -- -- 50
2019-06-02 09:00:00 17.6 3 Nordeste 5 Nordeste 0 -- -- 66
2019-06-02 08:00:00 12.2 0 Calma 3 Nordeste 0 -- -- 92
2019-06-02 07:00:00 10.3 0 Calma 4 Nordeste 0 -- -- 92
2019-06-02 06:00:00 10.7 0 Calma 5 Noroeste 0 -- -- 90
2019-06-02 05:00:00 11.3 0 Calma 4 Norte 0 -- -- 89
2019-06-02 04:00:00 12.2 0 Calma 4 Noroeste 0 -- -- 87
2019-06-02 03:00:00 12.9 0 Calma 4 Este 0 -- -- 84
2019-06-02 02:00:00 14 0 Calma 4 Norte 0 -- -- 80
2019-06-02 01:00:00 15 0 Calma 3 Este 0 -- -- 76
2019-06-02 00:00:00 16.7 0 Calma 4 Sudoeste 0 -- -- 67
2019-06-01 23:00:00 19 0 Calma 7 Noroeste 0 -- -- 52
2019-06-01 22:00:00 22.3 3 Noroeste 9 Noroeste 0 -- -- 39
2019-06-01 21:00:00 24.3 4 Oeste 12 Sudoeste 0 -- -- 33
2019-06-01 20:00:00 26.1 5 Sudoeste 17 Sudoeste 0 -- -- 32
2019-06-01 19:00:00 26.6 7 Sudoeste 19 Sudoeste 0 -- -- 31
2019-06-01 18:00:00 27.1 7 Oeste 21 Sudoeste 0 -- -- 30
2019-06-01 17:00:00 27.4 6 Sudoeste 18 Sudoeste 0 -- -- 29
2019-06-01 16:00:00 27.7 8 Sudoeste 18 Sudoeste 0 -- -- 29
2019-06-01 15:00:00 27.3 5 Oeste 17 Oeste 0 -- -- 30
2019-06-01 14:00:00 26.9 5 Sudoeste 15 Noroeste 0 -- -- 32
2019-06-01 13:00:00 25.8 0 Calma 9 Oeste 0 -- -- 36
2019-06-01 12:00:00 24.2 2 Sudoeste 8 Sudoeste 0 -- -- 39
2019-06-01 11:00:00 22.1 0 Calma 5 Este 0 -- -- 43
2019-06-01 10:00:00 18.8 0 Calma 5 Sur 0 -- -- 53
2019-06-01 09:00:00 15.3 2 Nordeste 4 Este 0 -- -- 74
2019-06-01 08:00:00 10.9 0 Calma 4 Nordeste 0 -- -- 94
2019-06-01 07:00:00 8.8 0 Calma 4 Noroeste 0 -- -- 94
2019-06-01 06:00:00 9 0 Calma 5 Noroeste 0 -- -- 94
2019-06-01 05:00:00 9.6 0 Calma 4 Este 0 -- -- 93
2019-06-01 04:00:00 10 0 Calma 4 Noroeste 0 -- -- 92
2019-06-01 03:00:00 10.8 0 Calma 4 Nordeste 0 -- -- 91
2019-06-01 02:00:00 11.3 0 Calma 4 Nordeste 0 -- -- 89
2019-06-01 01:00:00 12.3 0 Calma 4 Este 0 -- -- 87
2019-06-01 00:00:00 14.5 0 Calma 3 Sur 0 -- -- 72
2019-05-31 23:00:00 16.7 0 Calma 6 Oeste 0 -- -- 58
2019-05-31 22:00:00 20 0 Calma 6 Noroeste 0 -- -- 42
2019-05-31 21:00:00 22.5 3 Norte 10 Norte 0 -- -- 35
2019-05-31 20:00:00 24.3 4 Oeste 15 Sudoeste 0 -- -- 32
2019-05-31 19:00:00 25.1 7 Oeste 20 Sudoeste 0 -- -- 31
2019-05-31 18:00:00 25.7 5 Oeste 24 Sudoeste 0 -- -- 31
2019-05-31 17:00:00 26.2 7 Oeste 23 Sudoeste 0 -- -- 31
2019-05-31 16:00:00 26.1 8 Oeste 23 Sudoeste 0 -- -- 30
2019-05-31 15:00:00 25.8 6 Oeste 20 Sudoeste 0 -- -- 28
2019-05-31 14:00:00 24.8 5 Oeste 13 Oeste 0 -- -- 28
2019-05-31 13:00:00 23.8 3 Sudoeste 10 Sudoeste 0 -- -- 32
2019-05-31 12:00:00 22.2 0 Calma 8 Sur 0 -- -- 36
2019-05-31 11:00:00 19.2 3 Sur 6 Sudoeste 0 -- -- 38
2019-05-31 10:00:00 16.8 2 Sur 5 Sudoeste 0 -- -- 45
2019-05-31 09:00:00 13.2 2 Nordeste 5 Nordeste 0 -- -- 63
2019-05-31 08:00:00 8.2 0 Calma 4 Nordeste 0 -- -- 91
2019-05-31 07:00:00 5.4 0 Calma 5 Norte 0 -- -- 91
2019-05-31 06:00:00 5.9 0 Calma 4 Noroeste 0 -- -- 90
2019-05-31 05:00:00 6.6 0 Calma 4 Noroeste 0 -- -- 89
2019-05-31 04:00:00 6.9 0 Calma 4 Nordeste 0 -- -- 86
2019-05-31 03:00:00 7.8 0 Calma 4 Nordeste 0 -- -- 85
2019-05-31 02:00:00 8.8 0 Calma 4 Noroeste 0 -- -- 85
2019-05-31 01:00:00 9.4 2 Nordeste 4 Nordeste 0 -- -- 82
2019-05-31 00:00:00 13.3 0 Calma 5 Nordeste 0 -- -- 56
2019-05-30 23:00:00 16.5 0 Calma 15 Sudoeste 0 -- -- 37
2019-05-30 22:00:00 20.1 2 Sudoeste 15 Norte 0 -- -- 30
2019-05-30 21:00:00 21.6 5 Norte 22 Norte 0 -- -- 26
2019-05-30 20:00:00 23 8 Norte 20 Norte 0 -- -- 24
2019-05-30 19:00:00 24 9 Norte 25 Norte 0 -- -- 24
2019-05-30 18:00:00 24.9 7 Norte 23 Nordeste 0 -- -- 23
2019-05-30 17:00:00 26.3 7 Norte 28 Nordeste 0 -- -- 23
2019-05-30 16:00:00 26.1 4 Oeste 18 Sudoeste 0 -- -- 28
2019-05-30 15:00:00 25.5 4 Oeste 11 Oeste 0 -- -- 28
2019-05-30 14:00:00 24.8 0 Calma 12 Sudoeste 0 -- -- 32
2019-05-30 13:00:00 23.1 4 Sudoeste 12 Sudoeste 0 -- -- 35
2019-05-30 12:00:00 21.4 3 Sudoeste 10 Sudoeste 0 -- -- 38
2019-05-30 11:00:00 19.4 0 Calma 5 Sur 0 -- -- 40
2019-05-30 10:00:00 16.1 2 Sudeste 6 Sudoeste 0 -- -- 50
2019-05-30 09:00:00 13.1 0 Calma 5 Sudeste 0 -- -- 60
2019-05-30 08:00:00 8 0 Calma 5 Sur 0 -- -- 86
2019-05-30 07:00:00 5.7 0 Calma 5 Noroeste 0 -- -- 86
2019-05-30 06:00:00 6.2 2 Norte 6 Nordeste 0 -- -- 81
2019-05-30 05:00:00 7.8 0 Calma 12 Oeste 0 -- -- 74
2019-05-30 04:00:00 8 3 Este 11 Nordeste 0 -- -- 76
2019-05-30 03:00:00 8 0 Calma 5 Noroeste 0 -- -- 73
2019-05-30 02:00:00 9.1 0 Calma 9 Este 0 -- -- 64
2019-05-30 01:00:00 9.8 2 Nordeste 8 Nordeste 0 -- -- 61
2019-05-30 00:00:00 10.1 3 Nordeste 6 Norte 0 -- -- 60
2019-05-29 23:00:00 12.4 0 Calma 27 Norte 0 -- -- 47
2019-05-29 22:00:00 15.1 7 Norte 30 Norte 0 -- -- 36
2019-05-29 21:00:00 15.9 9 Norte 38 Norte 0 -- -- 34
2019-05-29 20:00:00 16.8 17 Norte 45 Norte 0 -- -- 31
2019-05-29 19:00:00 17.7 10 Noroeste 39 Norte 0 -- -- 30
2019-05-29 18:00:00 18.4 13 Norte 41 Norte 0 -- -- 28
2019-05-29 17:00:00 19.7 9 Norte 28 Oeste 0 -- -- 27
2019-05-29 16:00:00 20 10 Norte 37 Noroeste 0 -- -- 27
2019-05-29 15:00:00 19.9 10 Norte 31 Norte 0 -- -- 27
2019-05-29 14:00:00 20.5 8 Norte 26 Nordeste 0 -- -- 28
2019-05-29 13:00:00 19.3 6 Norte 26 Norte 0 -- -- 28
2019-05-29 12:00:00 17.5 8 Norte 27 Nordeste 0 -- -- 30
2019-05-29 11:00:00 16.4 9 Norte 26 Norte 0 -- -- 33
2019-05-29 10:00:00 17.1 10 Norte 30 Este 0 -- -- 34
2019-05-29 09:00:00 14.6 8 Norte 27 Norte 0 -- -- 43
2019-05-29 08:00:00 11 5 Nordeste 17 Nordeste 0 -- -- 59
2019-05-29 07:00:00 7.1 2 Sur 7 Sudoeste 0 -- -- 74
2019-05-29 06:00:00 7.8 3 Nordeste 8 Nordeste 0 -- -- 68
2019-05-29 05:00:00 8.4 0 Calma 7 Este 0 -- -- 67
2019-05-29 04:00:00 8.5 2 Sudeste 9 Sur 0 -- -- 65
2019-05-29 03:00:00 9.1 2 Nordeste 8 Nordeste 0 -- -- 61
2019-05-29 02:00:00 11.4 5 Nordeste 15 Nordeste 0 -- -- 47
2019-05-29 01:00:00 12.9 4 Oeste 24 Norte 0 -- -- 40
2019-05-29 00:00:00 13.3 6 Norte 28 Noroeste 0 -- -- 38
2019-05-28 23:00:00 14.1 0 Calma 22 Sudoeste 0 -- -- 33
2019-05-28 22:00:00 15.2 5 Noroeste 26 Noroeste 0 -- -- 30
2019-05-28 21:00:00 16.8 5 Oeste 32 Nordeste 0 -- -- 28
2019-05-28 20:00:00 18 5 Norte 34 Nordeste 0 -- -- 27
2019-05-28 19:00:00 19 8 Nordeste 35 Norte 0 -- -- 25
2019-05-28 18:00:00 19.7 14 Norte 36 Norte 0 -- -- 26
2019-05-28 17:00:00 22.6 3 Noroeste 25 Norte 0 -- -- 25
2019-05-28 16:00:00 23.4 5 Norte 20 Noroeste 0 -- -- 26
2019-05-28 15:00:00 23.1 5 Oeste 21 Sudoeste 0 -- -- 24
2019-05-28 14:00:00 22.6 6 Oeste 22 Sudoeste 0 -- -- 22
2019-05-28 13:00:00 22 9 Sudoeste 25 Sudoeste 0 -- -- 23
2019-05-28 12:00:00 21.2 2 Sur 8 Nordeste 0 -- -- 26
2019-05-28 11:00:00 19.6 0 Calma 5 Sudoeste 0 -- -- 36
2019-05-28 10:00:00 16.7 0 Calma 7 Sur 0 -- -- 51
2019-05-28 09:00:00 12.8 3 Sudoeste 5 Sur 0 -- -- 68
2019-05-28 08:00:00 9.1 2 Nordeste 4 Sur 0 -- -- 91
2019-05-28 07:00:00 6.9 0 Calma 5 Sudoeste 0 -- -- 91
2019-05-28 06:00:00 7 0 Calma 6 Noroeste 0 -- -- 89
2019-05-28 05:00:00 7.8 0 Calma 5 Nordeste 0 -- -- 86
2019-05-28 04:00:00 8.5 0 Calma 5 Oeste 0 -- -- 83
2019-05-28 03:00:00 9.6 0 Calma 8 Nordeste 0 -- -- 79
2019-05-28 02:00:00 10.1 0 Calma 5 Nordeste 0 -- -- 76
2019-05-28 01:00:00 11.1 0 Calma 5 Noroeste 0 -- -- 68
2019-05-28 00:00:00 13.1 2 Nordeste 4 Noroeste 0 -- -- 54
2019-05-27 23:00:00 15.8 0 Calma 12 Sudoeste 0 -- -- 42
2019-05-27 22:00:00 17.4 5 Sudoeste 19 Noroeste 0 -- -- 39
2019-05-27 21:00:00 18.8 5 Oeste 24 Norte 0 -- -- 35
2019-05-27 20:00:00 20.1 4 Norte 22 Norte 0 -- -- 35
2019-05-27 19:00:00 21.4 4 Noroeste 22 Norte 0 -- -- 33
2019-05-27 18:00:00 22.1 5 Noroeste 15 Oeste 0 -- -- 33
2019-05-27 17:00:00 21.8 8 Oeste 18 Oeste 0 -- -- 38
2019-05-27 16:00:00 23.7 4 Oeste 16 Sudoeste 0 -- -- 34
2019-05-27 15:00:00 23.1 8 Sudoeste 19 Sudoeste 0 -- -- 36
2019-05-27 14:00:00 22.5 8 Sudoeste 18 Sudoeste 0 -- -- 35
2019-05-27 13:00:00 21.9 2 Oeste 9 Sudoeste 0 -- -- 36
2019-05-27 12:00:00 20.6 0 Calma 10 Sur 0 -- -- 39
2019-05-27 11:00:00 18.8 0 Calma 6 Noroeste 0 -- -- 47
2019-05-27 10:00:00 15.6 0 Calma 6 Sudeste 0 -- -- 51
2019-05-27 09:00:00 12.1 0 Calma 8 Sudoeste 0 -- -- 71
2019-05-27 08:00:00 7.9 0 Calma 5 Sudoeste 0 -- -- 93
2019-05-27 07:00:00 5.5 0 Calma 6 Sudoeste 0 -- -- 93
2019-05-27 06:00:00 6 2 Sudoeste 5 Noroeste 0 -- -- 92
2019-05-27 05:00:00 6.9 0 Calma 4 Sur 0 -- -- 90
2019-05-27 04:00:00 7.6 3 Sudoeste 5 Sudoeste 0 -- -- 89
2019-05-27 03:00:00 8 2 Norte 6 Nordeste 0 -- -- 90
2019-05-27 02:00:00 7.6 0 Calma 4 Norte 0 -- -- 90
2019-05-27 01:00:00 8.2 0 Calma 4 Noroeste 0 -- -- 86
2019-05-27 00:00:00 10.2 0 Calma 9 Sudeste 0 -- -- 67
2019-05-26 23:00:00 11.4 0 Calma 6 Este 0 -- -- 57
2019-05-26 22:00:00 14.3 2 Nordeste 18 Norte 0 -- -- 41
2019-05-26 21:00:00 16.8 9 Norte 32 Norte 0 -- -- 34
2019-05-26 20:00:00 17.4 10 Norte 42 Norte 0 -- -- 32
2019-05-26 19:00:00 18.1 11 Norte 35 Norte 0 -- -- 32
2019-05-26 18:00:00 19.1 11 Norte 36 Noroeste 0 -- -- 32
2019-05-26 17:00:00 19.9 12 Norte 37 Norte 0 -- -- 32
2019-05-26 16:00:00 20.4 12 Este 37 Nordeste 0 -- -- 32
2019-05-26 15:00:00 20.7 13 Nordeste 33 Nordeste 0 -- -- 33
2019-05-26 14:00:00 20.8 10 Norte 36 Norte 0 -- -- 33
2019-05-26 13:00:00 20.7 9 Norte 22 Norte 0 -- -- 35
2019-05-26 12:00:00 18.2 8 Este 17 Nordeste 0 -- -- 42
2019-05-26 11:00:00 16.3 5 Este 17 Este 0 -- -- 47
2019-05-26 10:00:00 13.6 3 Sudeste 8 Sudeste 0 -- -- 65
2019-05-26 09:00:00 12 0 Calma 6 Norte 0 -- -- 69
2019-05-26 08:00:00 7.8 0 Calma 4 Sudeste 0 -- -- 93
2019-05-26 07:00:00 5.8 0 Calma 5 Nordeste 0 -- -- 93
2019-05-26 06:00:00 5.8 0 Calma 5 Nordeste 0 -- -- 92
2019-05-26 05:00:00 6.2 0 Calma 4 Nordeste 0 -- -- 91
2019-05-26 04:00:00 6.9 0 Calma 4 Nordeste 0 -- -- 89
2019-05-26 03:00:00 7.6 0 Calma 5 Sudoeste 0 -- -- 87
2019-05-26 02:00:00 8.2 0 Calma 5 Norte 0 -- -- 85
2019-05-26 01:00:00 9.4 0 Calma 5 Nordeste 0 -- -- 79
2019-05-26 00:00:00 10.3 0 Calma 7 Este 0 -- -- 73
2019-05-25 23:00:00 12.3 0 Calma 9 Norte 0 -- -- 58
2019-05-25 22:00:00 15.5 5 Norte 32 Norte 0 -- -- 41
2019-05-25 21:00:00 16.4 10 Norte 38 Norte 0 -- -- 39
2019-05-25 20:00:00 18 9 Norte 34 Norte 0 -- -- 37
2019-05-25 19:00:00 18.9 7 Nordeste 27 Norte 0 -- -- 37
2019-05-25 18:00:00 19.2 9 Norte 33 Norte 0 -- -- 37
2019-05-25 17:00:00 19.5 8 Norte 32 Norte 0 -- -- 38
2019-05-25 16:00:00 18.9 9 Norte 39 Norte 0 -- -- 38
2019-05-25 15:00:00 19.8 13 Norte 30 Norte 0 -- -- 39
2019-05-25 14:00:00 19.1 7 Norte 24 Norte 0 -- -- 40
2019-05-25 13:00:00 20.5 8 Nordeste 24 Nordeste 0 -- -- 39
2019-05-25 12:00:00 19.7 10 Nordeste 24 Este 0 -- -- 45
2019-05-25 11:00:00 18.2 0 Calma 7 Sudoeste 0 -- -- 53
2019-05-25 10:00:00 16.6 2 Sur 5 Sudoeste 0 -- -- 56
2019-05-25 09:00:00 13.5 2 Este 5 Sur 0 -- -- 81
2019-05-25 08:00:00 10.5 0 Calma 4 Noroeste 0 -- -- 93
2019-05-25 07:00:00 9.7 0 Calma 4 Noroeste 0 -- -- 93
2019-05-25 06:00:00 9.9 0 Calma 4 Noroeste 0 -- -- 92
2019-05-25 05:00:00 10.2 0 Calma 4 Noroeste 0 -- -- 91
2019-05-25 04:00:00 10.4 0 Calma 4 Noroeste 0 -- -- 88
2019-05-25 03:00:00 10.8 0 Calma 6 Sudoeste 0 -- -- 86
2019-05-25 02:00:00 11.3 0 Calma 7 Oeste 0 -- -- 85
2019-05-25 01:00:00 11.7 3 Sudoeste 8 Sudoeste 0 -- -- 81
2019-05-25 00:00:00 12.2 2 Sudoeste 7 Sudoeste 0 -- -- 80
2019-05-24 23:00:00 12.7 0 Calma 5 Sudoeste 0 -- -- 80
2019-05-24 22:00:00 13.4 3 Oeste 6 Oeste 0.1 -- -- 76
2019-05-24 21:00:00 14 0 Calma 4 Sur 0 -- -- 70
2019-05-24 20:00:00 15 0 Calma 6 Nordeste 0 -- -- 66
2019-05-24 19:00:00 15.4 0 Calma 9 Este 0 -- -- 61
2019-05-24 18:00:00 15.2 3 Este 13 Este 0 -- -- 63
2019-05-24 17:00:00 15.2 3 Este 14 Nordeste 0 -- -- 64
2019-05-24 16:00:00 14.5 7 Nordeste 17 Sudeste 0.1 -- -- 70
2019-05-24 15:00:00 13.8 0 Calma 6 Este 0.6 -- -- 82
2019-05-24 14:00:00 13.3 0 Calma 6 Norte 0.3 -- -- 87
2019-05-24 13:00:00 12.9 0 Calma 5 Sur 1 -- -- 91
2019-05-24 12:00:00 12.3 0 Calma 7 Noroeste 0.9 -- -- 92
2019-05-24 11:00:00 11.8 0 Calma 13 Noroeste 2.1 -- -- 92
2019-05-24 10:00:00 11.8 3 Nordeste 14 Nordeste 2.3 -- -- 94
2019-05-24 09:00:00 11.8 0 Calma 6 Sudoeste 2.4 -- -- 94
2019-05-24 08:00:00 12.2 0 Calma 4 Oeste 1.4 -- -- 95
2019-05-24 07:00:00 12.2 0 Calma 4 Noroeste 1.5 -- -- 95
2019-05-24 06:00:00 12.3 2 Sudoeste 5 Este 4.7 -- -- 94
2019-05-24 05:00:00 12.5 0 Calma 8 Sudoeste 8.4 -- -- 93
2019-05-24 04:00:00 13 0 Calma 10 Sudoeste 0.1 -- -- 92
2019-05-24 03:00:00 13.2 0 Calma 9 Sudoeste 0 -- -- 89
2019-05-24 02:00:00 13.9 4 Sur 13 Noroeste 0 -- -- 84
2019-05-24 01:00:00 13.9 4 Oeste 15 Oeste 2.4 -- -- 85
2019-05-24 00:00:00 16.1 8 Noroeste 22 Norte 0 -- -- 60
2019-05-23 23:00:00 17 6 Nordeste 28 Este 0 -- -- 55
2019-05-23 22:00:00 17.8 3 Nordeste 15 Este 0 -- -- 54
2019-05-23 21:00:00 20 3 Sudoeste 7 Oeste 0 -- -- 42
2019-05-23 20:00:00 22 4 Noroeste 17 Sur 0 -- -- 33
2019-05-23 19:00:00 23.2 5 Sudoeste 18 Sudoeste 0 -- -- 28
2019-05-23 18:00:00 24.1 6 Sudoeste 18 Sur 0 -- -- 26
2019-05-23 17:00:00 25.1 6 Sudoeste 24 Sudoeste 0 -- -- 24
2019-05-23 16:00:00 25.1 8 Sudoeste 22 Oeste 0 -- -- 25
2019-05-23 15:00:00 25.6 6 Sudoeste 17 Sudoeste 0 -- -- 24
2019-05-23 14:00:00 24.7 5 Sudoeste 12 Nordeste 0 -- -- 26
2019-05-23 13:00:00 22.9 3 Nordeste 10 Sur 0 -- -- 32
2019-05-23 12:00:00 21.6 4 Sur 9 Sudoeste 0 -- -- 38
2019-05-23 11:00:00 18.4 0 Calma 6 Sudoeste 0 -- -- 40
2019-05-23 10:00:00 15.9 2 Sur 5 Este 0 -- -- 52
2019-05-23 09:00:00 12.1 2 Sur 5 Sudoeste 0 -- -- 70
2019-05-23 08:00:00 7.3 0 Calma 7 Noroeste 0 -- -- 92
2019-05-23 07:00:00 5.3 0 Calma 4 Noroeste 0 -- -- 92
2019-05-23 06:00:00 5.7 0 Calma 4 Noroeste 0 -- -- 91
2019-05-23 05:00:00 6.2 0 Calma 5 Nordeste 0 -- -- 89
2019-05-23 04:00:00 7.2 0 Calma 5 Nordeste 0 -- -- 87
2019-05-23 03:00:00 7.8 0 Calma 4 Noroeste 0 -- -- 83
2019-05-23 02:00:00 8.7 0 Calma 7 Nordeste 0 -- -- 79
2019-05-23 01:00:00 9.8 0 Calma 5 Oeste 0 -- -- 73
2019-05-23 00:00:00 11.3 0 Calma 4 Noroeste 0 -- -- 66
2019-05-22 23:00:00 12.4 0 Calma 5 Sudoeste 0 -- -- 58
2019-05-22 22:00:00 14.5 0 Calma 6 Sudoeste 0 -- -- 49
2019-05-22 21:00:00 18.8 3 Noroeste 7 Noroeste 0 -- -- 30
2019-05-22 20:00:00 20.4 2 Noroeste 12 Sudoeste 0 -- -- 30
2019-05-22 19:00:00 20.8 4 Oeste 15 Sudoeste 0 -- -- 29
2019-05-22 18:00:00 21.5 7 Oeste 22 Sudoeste 0 -- -- 28
2019-05-22 17:00:00 23 5 Sur 21 Sur 0 -- -- 30
2019-05-22 16:00:00 23.2 6 Oeste 19 Oeste 0 -- -- 28
2019-05-22 15:00:00 22.9 5 Oeste 18 Sudoeste 0 -- -- 29
2019-05-22 14:00:00 22.1 4 Sudoeste 15 Sudoeste 0 -- -- 29
2019-05-22 13:00:00 21.3 4 Sudoeste 13 Sur 0 -- -- 33
2019-05-22 12:00:00 19.6 4 Sudoeste 9 Sudoeste 0 -- -- 37
2019-05-22 11:00:00 17.6 3 Sudoeste 11 Sudoeste 0 -- -- 47
2019-05-22 10:00:00 14.7 3 Sudoeste 9 Sur 0 -- -- 58
2019-05-22 09:00:00 11.5 3 Sur 5 Sur 0 -- -- 75
2019-05-22 08:00:00 7.3 0 Calma 4 Este 0 -- -- 94
2019-05-22 07:00:00 5.2 2 Norte 4 Noroeste 0 -- -- 94
2019-05-22 06:00:00 5.9 0 Calma 4 Nordeste 0 -- -- 93
2019-05-22 05:00:00 6.5 0 Calma 4 Norte 0 -- -- 92
2019-05-22 04:00:00 7.1 0 Calma 5 Nordeste 0 -- -- 91
2019-05-22 03:00:00 7.8 0 Calma 5 Noroeste 0 -- -- 89
2019-05-22 02:00:00 8.5 0 Calma 6 Noroeste 0 -- -- 86
2019-05-22 01:00:00 9.6 2 Sudoeste 5 Sudoeste 0 -- -- 80
2019-05-22 00:00:00 11 4 Sudoeste 9 Sudoeste 0 -- -- 71
2019-05-21 23:00:00 13.5 2 Nordeste 18 Nordeste 0 -- -- 61
2019-05-21 22:00:00 14.7 9 Nordeste 24 Este 0 -- -- 56
2019-05-21 21:00:00 15.3 6 Este 19 Este 0 -- -- 50
2019-05-21 20:00:00 16.8 10 Nordeste 21 Noroeste 0 -- -- 42
2019-05-21 19:00:00 18.5 9 Norte 24 Norte 0 -- -- 35
2019-05-21 18:00:00 19.7 5 Sudoeste 17 Sudoeste 0 -- -- 33
2019-05-21 17:00:00 20.2 8 Sudoeste 19 Sudoeste 0 -- -- 29
2019-05-21 16:00:00 23.1 6 Sudoeste 17 Sudoeste 0 -- -- 26
2019-05-21 15:00:00 21.5 3 Sudoeste 12 Sudoeste 0 -- -- 27
2019-05-21 14:00:00 20.6 4 Nordeste 10 Norte 0 -- -- 33
2019-05-21 13:00:00 18.3 2 Nordeste 8 Sur 0 -- -- 43
2019-05-21 12:00:00 16.1 4 Sudoeste 9 Sudoeste 0 -- -- 53
2019-05-21 11:00:00 14.2 3 Sudoeste 12 Sur 0 -- -- 59
2019-05-21 10:00:00 13.2 4 Nordeste 10 Nordeste 0 -- -- 63
2019-05-21 09:00:00 10.4 0 Calma 4 Sudeste 0 -- -- 94
2019-05-21 08:00:00 6.9 0 Calma 6 Noroeste 0 -- -- 96
2019-05-21 07:00:00 6.6 2 Este 11 Noroeste 0 -- -- 95
2019-05-21 06:00:00 6.7 0 Calma 4 Este 0 -- -- 95
2019-05-21 05:00:00 7 0 Calma 4 Este 0 -- -- 95
2019-05-21 04:00:00 8.1 0 Calma 3 Sur 0 -- -- 94
2019-05-21 03:00:00 8.3 0 Calma 3 Sudeste 0 -- -- 94
2019-05-21 02:00:00 9.2 0 Calma 5 Sudoeste 0 -- -- 93
2019-05-21 01:00:00 10.3 3 Oeste 5 Norte 0 -- -- 91
2019-05-21 00:00:00 10.7 0 Calma 5 Oeste 0 -- -- 91